createdAt,value
2019-03-03T00:01:49.909Z,6.90
2019-03-03T00:04:21.021Z,6.90
2019-03-03T00:06:52.243Z,6.90
2019-03-03T00:09:23.307Z,7.00
2019-03-03T00:11:54.381Z,7.00
2019-03-03T00:14:25.464Z,7.00
2019-03-03T00:16:57.580Z,6.90
2019-03-03T00:19:28.538Z,6.90
2019-03-03T00:21:59.595Z,6.90
2019-03-03T00:24:31.622Z,6.80
2019-03-03T00:27:02.684Z,6.90
2019-03-03T00:29:33.708Z,6.90
2019-03-03T00:32:04.767Z,6.90
2019-03-03T00:34:35.796Z,6.80
2019-03-03T00:37:14.360Z,6.70
2019-03-03T00:39:46.954Z,6.70
2019-03-03T00:42:22.530Z,6.70
2019-03-03T00:45:13.330Z,6.80
2019-03-03T00:48:02.122Z,6.80
2019-03-03T00:50:41.941Z,6.80
2019-03-03T00:53:17.276Z,6.80
2019-03-03T00:55:49.882Z,6.70
2019-03-03T00:58:22.519Z,6.60
2019-03-03T01:00:55.117Z,6.50
2019-03-03T01:03:27.754Z,6.40
2019-03-03T01:06:03.335Z,6.40
2019-03-03T01:08:34.087Z,6.40
2019-03-03T01:11:14.048Z,6.40
2019-03-03T01:14:00.870Z,6.40
2019-03-03T01:16:47.050Z,6.50
2019-03-03T01:19:34.546Z,6.50
2019-03-03T01:22:07.243Z,6.60
2019-03-03T01:24:49.883Z,6.60
2019-03-03T01:27:20.939Z,6.60
2019-03-03T01:29:51.996Z,6.70
2019-03-03T01:32:23.025Z,6.70
2019-03-03T01:34:54.077Z,6.80
2019-03-03T01:37:25.112Z,6.80
2019-03-03T01:39:56.162Z,6.80
2019-03-03T01:42:27.184Z,6.90
2019-03-03T01:44:58.271Z,6.90
2019-03-03T01:47:29.386Z,7.00
2019-03-03T01:50:00.406Z,7.00
2019-03-03T01:52:31.462Z,7.00
2019-03-03T01:55:02.499Z,7.10
2019-03-03T01:57:33.544Z,7.10
2019-03-03T02:00:07.595Z,7.10
2019-03-03T02:02:38.656Z,7.10
2019-03-03T02:05:09.675Z,7.20
2019-03-03T02:07:41.772Z,7.20
2019-03-03T02:10:12.794Z,7.20
2019-03-03T02:12:43.851Z,7.20
2019-03-03T02:15:15.171Z,7.20
2019-03-03T02:17:46.235Z,7.20
2019-03-03T02:20:17.424Z,7.10
2019-03-03T02:22:48.484Z,7.10
2019-03-03T02:25:19.509Z,7.10
2019-03-03T02:27:50.662Z,7.10
2019-03-03T02:30:22.821Z,7.10
2019-03-03T02:32:53.847Z,7.10
2019-03-03T02:35:24.907Z,7.10
2019-03-03T02:37:55.928Z,7.10
2019-03-03T02:40:26.991Z,7.10
2019-03-03T02:42:58.007Z,7.10
2019-03-03T02:45:30.064Z,7.00
2019-03-03T02:48:01.091Z,7.00
2019-03-03T02:50:32.147Z,7.00
2019-03-03T02:53:03.166Z,7.00
2019-03-03T02:55:34.225Z,7.00
2019-03-03T02:58:05.249Z,7.00
2019-03-03T03:00:38.876Z,7.00
2019-03-03T03:03:11.474Z,7.00
2019-03-03T03:05:50.177Z,7.10
2019-03-03T03:08:25.735Z,7.10
2019-03-03T03:11:07.368Z,7.10
2019-03-03T03:13:38.086Z,7.10
2019-03-03T03:16:19.720Z,7.10
2019-03-03T03:18:55.254Z,7.00
2019-03-03T03:21:30.849Z,7.10
2019-03-03T03:24:03.443Z,7.10
2019-03-03T03:26:51.182Z,7.10
2019-03-03T03:29:26.824Z,7.10
2019-03-03T03:32:03.362Z,7.00
2019-03-03T03:34:45.830Z,7.00
2019-03-03T03:37:21.181Z,7.00
2019-03-03T03:39:53.787Z,7.00
2019-03-03T03:42:38.477Z,7.10
2019-03-03T03:45:21.948Z,7.10
2019-03-03T03:48:10.453Z,7.10
2019-03-03T03:50:43.045Z,7.00
2019-03-03T03:53:18.594Z,7.10
2019-03-03T03:56:09.055Z,7.10
2019-03-03T03:58:39.915Z,7.00
2019-03-03T04:01:30.663Z,7.00
2019-03-03T04:04:03.286Z,7.00
2019-03-03T04:06:35.878Z,7.00
2019-03-03T04:09:11.667Z,7.00
2019-03-03T04:11:47.208Z,7.10
2019-03-03T04:14:25.760Z,7.10
2019-03-03T04:17:01.065Z,7.10
2019-03-03T04:19:36.658Z,7.10
2019-03-03T04:22:18.074Z,7.10
2019-03-03T04:24:59.767Z,7.10
2019-03-03T04:27:32.361Z,7.10
2019-03-03T04:30:04.990Z,7.10
2019-03-03T04:32:49.702Z,7.10
2019-03-03T04:35:28.333Z,7.10
2019-03-03T04:38:16.798Z,7.10
2019-03-03T04:40:55.166Z,7.10
2019-03-03T04:43:27.757Z,7.10
2019-03-03T04:46:00.379Z,7.10
2019-03-03T04:48:43.213Z,7.10
2019-03-03T04:51:27.868Z,7.10
2019-03-03T04:54:03.459Z,7.10
2019-03-03T04:56:45.194Z,7.10
2019-03-03T04:59:29.521Z,7.00
2019-03-03T05:02:02.144Z,7.00
2019-03-03T05:04:34.738Z,7.00
2019-03-03T05:07:10.338Z,7.00
2019-03-03T05:09:55.924Z,7.00
2019-03-03T05:12:31.568Z,7.00
2019-03-03T05:15:04.162Z,7.00
2019-03-03T05:17:51.897Z,7.00
2019-03-03T05:20:22.929Z,6.90
2019-03-03T05:22:53.920Z,6.80
2019-03-03T05:25:24.948Z,6.70
2019-03-03T05:27:55.997Z,6.60
2019-03-03T05:30:27.023Z,6.60
2019-03-03T05:32:58.084Z,6.60
2019-03-03T05:35:29.128Z,6.50
2019-03-03T05:38:00.155Z,6.50
2019-03-03T05:40:31.210Z,6.40
2019-03-03T05:43:02.234Z,6.30
2019-03-03T05:45:33.291Z,6.20
2019-03-03T05:48:04.309Z,6.20
2019-03-03T05:50:35.366Z,6.10
2019-03-03T05:53:06.474Z,6.20
2019-03-03T05:55:37.536Z,6.10
2019-03-03T05:58:08.563Z,6.10
2019-03-03T06:00:39.696Z,6.10
2019-03-03T06:03:11.720Z,6.10
2019-03-03T06:05:42.769Z,6.00
2019-03-03T06:08:13.795Z,6.00
2019-03-03T06:10:44.851Z,6.00
2019-03-03T06:13:15.875Z,6.00
2019-03-03T06:15:46.932Z,6.00
2019-03-03T06:18:17.954Z,6.00
2019-03-03T06:20:49.006Z,6.00
2019-03-03T06:23:20.038Z,6.00
2019-03-03T06:25:51.085Z,6.00
2019-03-03T06:28:22.136Z,5.90
2019-03-03T06:30:53.161Z,6.00
2019-03-03T06:33:24.213Z,6.00
2019-03-03T06:35:55.241Z,6.10
2019-03-03T06:38:26.294Z,6.00
2019-03-03T06:40:57.317Z,6.00
2019-03-03T06:43:28.368Z,5.90
2019-03-03T06:46:00.388Z,5.90
2019-03-03T06:48:31.446Z,5.90
2019-03-03T06:51:02.470Z,6.00
2019-03-03T06:53:33.523Z,6.10
2019-03-03T06:56:04.551Z,6.10
2019-03-03T06:58:35.605Z,6.20
2019-03-03T07:01:06.672Z,6.10
2019-03-03T07:03:37.729Z,6.20
2019-03-03T07:06:08.761Z,6.30
2019-03-03T07:08:39.813Z,6.40
2019-03-03T07:11:10.847Z,6.50
2019-03-03T07:13:41.921Z,6.70
2019-03-03T07:16:13.006Z,6.80
2019-03-03T07:18:44.062Z,6.80
2019-03-03T07:21:15.117Z,6.90
2019-03-03T07:23:46.173Z,6.90
2019-03-03T07:26:17.163Z,6.90
2019-03-03T07:28:48.485Z,7.00
2019-03-03T07:31:19.539Z,7.10
2019-03-03T07:33:51.662Z,7.10
2019-03-03T07:36:22.722Z,7.20
2019-03-03T07:38:53.742Z,7.30
2019-03-03T07:41:24.792Z,7.40
2019-03-03T07:43:56.152Z,7.50
2019-03-03T07:46:27.266Z,7.60
2019-03-03T07:48:58.286Z,7.60
2019-03-03T07:51:29.343Z,7.60
2019-03-03T07:54:00.368Z,7.60
2019-03-03T07:56:31.419Z,7.70
2019-03-03T07:59:02.438Z,7.90
2019-03-03T08:01:33.502Z,8.00
2019-03-03T08:04:04.527Z,8.10
2019-03-03T08:06:35.583Z,8.10
2019-03-03T08:09:08.331Z,8.10
2019-03-03T08:11:39.497Z,8.20
2019-03-03T08:14:10.551Z,8.30
2019-03-03T08:16:41.618Z,8.30
2019-03-03T08:19:12.675Z,8.40
2019-03-03T08:21:43.692Z,8.50
2019-03-03T08:24:14.742Z,8.50
2019-03-03T08:26:45.767Z,8.50
2019-03-03T08:29:16.824Z,8.40
2019-03-03T08:31:47.849Z,8.40
2019-03-03T08:34:18.895Z,8.50
2019-03-03T08:36:50.019Z,8.60
2019-03-03T08:39:21.205Z,8.70
2019-03-03T08:41:53.862Z,8.80
2019-03-03T08:44:26.491Z,8.80
2019-03-03T08:47:02.042Z,8.90
2019-03-03T08:49:35.661Z,9.00
2019-03-03T08:52:10.976Z,9.00
2019-03-03T08:54:46.575Z,9.10
2019-03-03T08:57:31.855Z,9.20
2019-03-03T09:00:20.276Z,9.40
2019-03-03T09:02:55.548Z,9.70
2019-03-03T09:05:30.836Z,9.90
2019-03-03T09:08:12.385Z,10.00
2019-03-03T09:10:45.026Z,10.00
2019-03-03T09:13:20.619Z,10.20
2019-03-03T09:16:09.308Z,10.40
2019-03-03T09:18:57.048Z,10.60
2019-03-03T09:21:30.847Z,11.00
2019-03-03T09:24:19.382Z,10.90
2019-03-03T09:26:58.033Z,10.70
2019-03-03T09:29:30.678Z,10.70
2019-03-03T09:32:12.353Z,10.80
2019-03-03T09:34:45.012Z,10.80
2019-03-03T09:37:17.671Z,10.70
2019-03-03T09:39:53.257Z,10.70
2019-03-03T09:42:28.820Z,10.80
2019-03-03T09:45:04.178Z,10.90
2019-03-03T09:47:37.673Z,11.00
2019-03-03T09:50:15.799Z,11.10
2019-03-03T09:52:55.542Z,11.20
2019-03-03T09:55:26.311Z,11.20
2019-03-03T09:58:04.960Z,11.30
2019-03-03T10:00:35.791Z,11.30
2019-03-03T10:03:08.425Z,11.20
2019-03-03T10:05:45.249Z,11.20
2019-03-03T10:08:23.638Z,11.20
2019-03-03T10:11:02.130Z,11.30
2019-03-03T10:13:34.737Z,11.40
2019-03-03T10:16:10.085Z,11.60
2019-03-03T10:18:51.503Z,11.70
2019-03-03T10:21:23.269Z,11.70
2019-03-03T10:23:58.640Z,11.70
2019-03-03T10:26:37.359Z,11.90
2019-03-03T10:29:08.167Z,12.20
2019-03-03T10:31:50.096Z,13.40
2019-03-03T10:34:28.523Z,14.30
2019-03-03T10:37:01.156Z,14.80
2019-03-03T10:39:37.565Z,15.70
2019-03-03T10:42:19.338Z,15.40
2019-03-03T10:44:50.076Z,15.10
2019-03-03T10:47:38.995Z,15.20
2019-03-03T10:50:13.381Z,15.90
2019-03-03T10:52:54.847Z,15.40
2019-03-03T10:55:30.592Z,15.30
2019-03-03T10:58:09.028Z,15.10
2019-03-03T11:00:44.515Z,15.90
2019-03-03T11:03:32.954Z,15.40
2019-03-03T11:06:23.427Z,15.70
2019-03-03T11:09:08.222Z,16.50
2019-03-03T11:11:44.811Z,15.90
2019-03-03T11:14:33.567Z,15.30
2019-03-03T11:17:15.163Z,14.90
2019-03-03T11:20:02.896Z,15.50
2019-03-03T11:22:52.087Z,16.10
2019-03-03T11:25:33.863Z,17.00
2019-03-03T11:28:23.551Z,17.50
2019-03-03T11:30:52.502Z,17.70
2019-03-03T11:33:33.964Z,17.60
2019-03-03T11:36:10.586Z,17.70
2019-03-03T11:38:46.268Z,17.40
2019-03-03T11:41:21.975Z,17.30
2019-03-03T11:43:54.589Z,17.40
2019-03-03T11:46:25.341Z,18.30
2019-03-03T11:49:01.769Z,18.60
2019-03-03T11:51:35.213Z,18.30
2019-03-03T11:54:10.768Z,17.30
2019-03-03T11:56:43.397Z,16.20
2019-03-03T11:59:16.004Z,16.60
2019-03-03T12:02:00.502Z,17.00
2019-03-03T12:04:46.042Z,17.10
2019-03-03T12:07:33.559Z,17.00
2019-03-03T12:10:23.914Z,16.80
2019-03-03T12:12:54.678Z,17.00
2019-03-03T12:15:27.280Z,17.20
2019-03-03T12:18:15.991Z,17.60
2019-03-03T12:21:04.652Z,17.20
2019-03-03T12:23:40.010Z,17.10
2019-03-03T12:26:12.612Z,17.10
2019-03-03T12:29:01.088Z,17.80
2019-03-03T12:31:33.694Z,17.70
2019-03-03T12:34:22.119Z,17.20
2019-03-03T12:37:12.588Z,16.70
2019-03-03T12:40:03.353Z,16.70
2019-03-03T12:42:50.968Z,17.80
2019-03-03T12:45:24.108Z,17.90
2019-03-03T12:48:03.990Z,18.10
2019-03-03T12:50:42.677Z,17.90
2019-03-03T12:53:33.166Z,17.50
2019-03-03T12:56:17.518Z,17.50
2019-03-03T12:58:51.253Z,17.50
2019-03-03T13:01:39.659Z,17.20
2019-03-03T13:04:13.141Z,18.20
2019-03-03T13:06:48.698Z,19.10
2019-03-03T13:09:37.530Z,18.80
2019-03-03T13:12:08.280Z,18.10
2019-03-03T13:14:43.880Z,19.50
2019-03-03T13:17:16.455Z,19.40
2019-03-03T13:19:49.089Z,18.90
2019-03-03T13:22:24.774Z,18.30
2019-03-03T13:25:13.383Z,18.70
2019-03-03T13:27:56.252Z,18.90
2019-03-03T13:30:37.597Z,18.00
2019-03-03T13:33:10.202Z,16.20
2019-03-03T13:35:46.941Z,16.50
2019-03-03T13:38:25.242Z,17.20
2019-03-03T13:41:12.689Z,17.40
2019-03-03T13:43:43.729Z,17.90
2019-03-03T13:46:14.759Z,18.50
2019-03-03T13:48:45.810Z,18.30
2019-03-03T13:51:16.856Z,18.30
2019-03-03T13:53:47.891Z,18.20
2019-03-03T13:56:18.924Z,18.40
2019-03-03T13:58:49.984Z,17.90
2019-03-03T14:01:21.286Z,18.10
2019-03-03T14:03:52.325Z,18.10
2019-03-03T14:06:23.360Z,18.20
2019-03-03T14:08:54.426Z,18.00
2019-03-03T14:11:30.725Z,17.00
2019-03-03T14:14:01.796Z,17.00
2019-03-03T14:16:32.827Z,16.70
2019-03-03T14:19:03.909Z,16.60
2019-03-03T14:21:35.024Z,16.40
2019-03-03T14:24:06.205Z,16.80
2019-03-03T14:26:37.304Z,17.00
2019-03-03T14:29:08.366Z,16.60
2019-03-03T14:31:39.404Z,16.40
2019-03-03T14:34:10.504Z,16.00
2019-03-03T14:36:41.607Z,15.70
2019-03-03T14:39:12.851Z,15.70
2019-03-03T14:41:43.916Z,15.20
2019-03-03T14:44:15.943Z,14.90
2019-03-03T14:46:47.001Z,14.50
2019-03-03T14:49:18.039Z,14.30
2019-03-03T14:51:49.101Z,14.30
2019-03-03T14:54:20.200Z,14.40
2019-03-03T14:56:51.276Z,14.50
2019-03-03T14:59:22.320Z,14.50
2019-03-03T15:01:53.415Z,14.50
2019-03-03T15:04:24.452Z,14.60
2019-03-03T15:06:55.522Z,14.50
2019-03-03T15:09:27.151Z,14.40
2019-03-03T15:11:58.236Z,14.20
2019-03-03T15:14:29.318Z,14.10
2019-03-03T15:17:00.387Z,14.00
2019-03-03T15:19:31.541Z,14.00
2019-03-03T15:22:02.625Z,13.90
2019-03-03T15:24:33.690Z,13.60
2019-03-03T15:27:04.776Z,13.60
2019-03-03T15:29:35.843Z,13.70
2019-03-03T15:32:06.876Z,13.70
2019-03-03T15:34:37.940Z,13.50
2019-03-03T15:37:10.575Z,13.50
2019-03-03T15:39:41.642Z,13.80
2019-03-03T15:42:12.675Z,14.10
2019-03-03T15:44:44.847Z,13.90
2019-03-03T15:47:15.878Z,13.80
2019-03-03T15:49:46.955Z,13.60
2019-03-03T15:52:18.995Z,13.70
2019-03-03T15:54:50.058Z,13.90
2019-03-03T15:57:23.945Z,13.80
2019-03-03T15:59:55.007Z,13.80
2019-03-03T16:02:26.081Z,14.10
2019-03-03T16:04:57.127Z,13.90
2019-03-03T16:07:28.190Z,13.70
2019-03-03T16:09:59.234Z,13.50
2019-03-03T16:12:30.292Z,13.20
2019-03-03T16:15:01.334Z,13.20
2019-03-03T16:17:35.044Z,13.10
2019-03-03T16:20:10.945Z,13.00
2019-03-03T16:22:42.025Z,13.00
2019-03-03T16:25:17.019Z,13.00
2019-03-03T16:27:48.085Z,12.90
2019-03-03T16:30:23.983Z,12.90
2019-03-03T16:32:55.119Z,12.80
2019-03-03T16:35:26.184Z,12.70
2019-03-03T16:37:57.229Z,12.60
2019-03-03T16:40:38.990Z,12.50
2019-03-03T16:43:01.741Z,12.40
2019-03-03T16:45:32.800Z,12.30
2019-03-03T16:48:03.842Z,12.20
2019-03-03T16:50:34.905Z,12.20
2019-03-03T16:53:06.660Z,12.10
2019-03-03T16:55:37.834Z,12.00
2019-03-03T16:58:08.920Z,11.90
2019-03-03T17:00:40.170Z,11.90
2019-03-03T17:03:11.301Z,11.80
2019-03-03T17:05:42.352Z,11.90
2019-03-03T17:08:13.475Z,11.90
2019-03-03T17:10:44.577Z,11.90
2019-03-03T17:13:15.702Z,11.80
2019-03-03T17:15:46.766Z,11.80
2019-03-03T17:18:17.826Z,11.90
2019-03-03T17:20:48.895Z,11.90
2019-03-03T17:23:19.947Z,12.00
2019-03-03T17:25:51.063Z,11.90
2019-03-03T17:28:22.147Z,11.80
2019-03-03T17:30:53.207Z,11.80
2019-03-03T17:33:24.245Z,11.70
2019-03-03T17:35:55.307Z,11.70
2019-03-03T17:38:26.337Z,11.70
2019-03-03T17:40:57.395Z,11.60
2019-03-03T17:43:28.448Z,11.60
2019-03-03T17:45:59.519Z,11.60
2019-03-03T17:48:30.551Z,11.50
2019-03-03T17:51:03.114Z,11.50
2019-03-03T17:53:34.162Z,11.50
2019-03-03T17:56:05.259Z,11.50
2019-03-03T17:58:36.301Z,11.40
2019-03-03T18:01:07.378Z,11.40
2019-03-03T18:03:38.412Z,11.40
2019-03-03T18:06:09.475Z,11.30
2019-03-03T18:08:40.509Z,11.10
2019-03-03T18:11:11.566Z,11.10
2019-03-03T18:13:42.607Z,10.90
2019-03-03T18:16:13.694Z,10.90
2019-03-03T18:18:44.719Z,10.80
2019-03-03T18:21:15.779Z,10.70
2019-03-03T18:23:47.855Z,10.70
2019-03-03T18:26:18.927Z,10.70
2019-03-03T18:28:50.022Z,10.70
2019-03-03T18:31:21.048Z,10.60
2019-03-03T18:33:52.111Z,10.60
2019-03-03T18:36:23.189Z,10.60
2019-03-03T18:38:54.254Z,10.60
2019-03-03T18:41:25.287Z,10.50
2019-03-03T18:43:56.359Z,10.50
2019-03-03T18:46:27.416Z,10.60
2019-03-03T18:48:59.476Z,10.60
2019-03-03T18:51:30.527Z,10.50
2019-03-03T18:54:01.599Z,10.30
2019-03-03T18:56:32.618Z,10.20
2019-03-03T18:59:03.817Z,10.20
2019-03-03T19:01:34.907Z,10.20
2019-03-03T19:04:06.108Z,10.20
2019-03-03T19:06:37.142Z,10.20
2019-03-03T19:09:11.105Z,10.20
2019-03-03T19:11:42.355Z,10.10
2019-03-03T19:14:13.430Z,9.90
2019-03-03T19:16:44.492Z,9.70
2019-03-03T19:19:15.658Z,9.40
2019-03-03T19:21:46.713Z,9.30
2019-03-03T19:24:18.266Z,9.20
2019-03-03T19:26:49.388Z,9.30
2019-03-03T19:29:20.476Z,9.10
2019-03-03T19:31:51.577Z,8.90
2019-03-03T19:34:22.679Z,8.70
2019-03-03T19:36:53.758Z,8.50
2019-03-03T19:39:24.800Z,8.40
2019-03-03T19:41:55.887Z,8.40
2019-03-03T19:44:26.942Z,8.30
2019-03-03T19:46:58.896Z,8.20
2019-03-03T19:49:29.948Z,8.20
2019-03-03T19:52:01.035Z,8.20
2019-03-03T19:54:32.089Z,8.20
2019-03-03T19:57:03.156Z,8.10
2019-03-03T19:59:34.196Z,8.10
2019-03-03T20:02:05.278Z,8.00
2019-03-03T20:04:36.300Z,8.00
2019-03-03T20:07:07.391Z,8.00
2019-03-03T20:09:39.906Z,8.00
2019-03-03T20:12:11.057Z,8.20
2019-03-03T20:14:42.094Z,8.00
2019-03-03T20:17:14.156Z,7.80
2019-03-03T20:19:45.190Z,7.60
2019-03-03T20:22:16.255Z,7.50
2019-03-03T20:24:47.314Z,7.30
2019-03-03T20:27:18.372Z,7.10
2019-03-03T20:29:49.553Z,6.90
2019-03-03T20:32:20.610Z,7.00
2019-03-03T20:34:51.667Z,6.90
2019-03-03T20:37:22.690Z,6.80
2019-03-03T20:39:53.747Z,7.20
2019-03-03T20:42:26.358Z,7.50
2019-03-03T20:44:57.434Z,7.70
2019-03-03T20:47:28.460Z,7.70
2019-03-03T20:49:59.513Z,7.80
2019-03-03T20:52:30.533Z,8.00
2019-03-03T20:55:01.598Z,8.10
2019-03-03T20:57:32.641Z,8.20
2019-03-03T21:00:09.260Z,8.20
2019-03-03T21:02:40.383Z,8.20
2019-03-03T21:05:11.687Z,8.30
2019-03-03T21:07:50.829Z,8.30
2019-03-03T21:10:27.635Z,8.40
2019-03-03T21:12:58.659Z,8.50
2019-03-03T21:15:29.742Z,8.60
2019-03-03T21:18:00.763Z,8.60
2019-03-03T21:20:31.820Z,8.50
2019-03-03T21:23:02.853Z,8.50
2019-03-03T21:25:33.989Z,8.40
2019-03-03T21:28:05.021Z,8.50
2019-03-03T21:30:36.177Z,8.60
2019-03-03T21:33:07.234Z,8.60
2019-03-03T21:35:38.352Z,8.70
2019-03-03T21:38:09.431Z,8.70
2019-03-03T21:40:40.454Z,8.80
2019-03-03T21:43:12.511Z,8.80
2019-03-03T21:45:43.538Z,8.90
2019-03-03T21:48:14.594Z,9.00
2019-03-03T21:50:45.620Z,9.00
2019-03-03T21:53:16.678Z,9.10
2019-03-03T21:55:47.689Z,9.00
2019-03-03T21:58:18.772Z,9.00
2019-03-03T22:00:49.795Z,8.90
2019-03-03T22:03:20.857Z,8.90
2019-03-03T22:05:51.882Z,8.80
2019-03-03T22:08:22.935Z,8.70
2019-03-03T22:10:53.962Z,8.70
2019-03-03T22:13:25.041Z,8.60
2019-03-03T22:15:56.059Z,8.50
2019-03-03T22:18:27.106Z,8.50
2019-03-03T22:20:58.186Z,8.50
2019-03-03T22:23:29.306Z,8.50
2019-03-03T22:26:00.332Z,8.50
2019-03-03T22:28:31.401Z,8.50
2019-03-03T22:31:02.416Z,8.50
2019-03-03T22:33:33.520Z,8.50
2019-03-03T22:36:04.655Z,8.50
2019-03-03T22:38:35.769Z,8.50
2019-03-03T22:41:06.868Z,8.50
2019-03-03T22:43:37.918Z,8.50
2019-03-03T22:46:09.074Z,8.50
2019-03-03T22:48:40.099Z,8.50
2019-03-03T22:51:11.139Z,8.40
2019-03-03T22:53:42.159Z,8.40
2019-03-03T22:56:13.216Z,8.40
2019-03-03T22:58:44.254Z,8.40
2019-03-03T23:01:19.206Z,8.40
2019-03-03T23:04:24.149Z,8.60
2019-03-03T23:06:59.701Z,8.60
2019-03-03T23:10:06.393Z,8.60
2019-03-03T23:13:02.939Z,8.70
2019-03-03T23:15:54.880Z,8.70
2019-03-03T23:18:53.972Z,8.80
2019-03-03T23:21:35.294Z,8.80
2019-03-03T23:24:13.523Z,8.80
2019-03-03T23:26:44.577Z,8.80
2019-03-03T23:29:15.703Z,8.90
2019-03-03T23:31:46.711Z,8.90
2019-03-03T23:34:19.065Z,8.80
2019-03-03T23:36:50.092Z,8.90
2019-03-03T23:39:21.192Z,8.90
2019-03-03T23:41:52.208Z,8.90
2019-03-03T23:44:23.734Z,9.00
2019-03-03T23:46:55.790Z,9.00
2019-03-03T23:49:26.931Z,9.10
2019-03-03T23:51:57.950Z,9.20
2019-03-03T23:54:29.003Z,9.20
2019-03-03T23:57:00.039Z,9.30
2019-03-03T23:59:31.109Z,9.40
